Brightway — 9V8755 — position and weather

sailwx.info

Track history (hours):
 
Tides and Currents Weather Stations Pressure Air Temp Water Temp Dewpoint Dewpoint Depression Visibility Wind Speed Wind Dir Waves Ship Positions

Brightway

Last reported at 2016-Dec-05 15:29 UTC. Time now 2016-Dec-08 04:08 UTC.
Position N 36°39' E 013°32'.

Length 274 m; draft 17.1 m.

Type: Tanker. MMSI: 566422000.

Date/timePositionNaut miles runAvg speedWind from/ knotsBaromVisibWave heightAir tempDewpointWater temp
2016-Dec-05 15:29N 36°39' E 013°32'1010.9
2016-Dec-05 14:33N 36°36' E 013°44'1411.0
2016-Dec-05 13:16N 36°31' E 014°01'811.1
2016-Dec-05 12:33N 36°28' E 014°10'1110.6
2016-Dec-05 11:33N 36°21' E 014°20'1111.3
2016-Dec-05 10:33N 36°12' E 014°28'1111.0
2016-Dec-05 09:33N 36°03' E 014°36'9 9.4
2016-Dec-05 08:34N 35°56' E 014°44'6 5.4
2016-Dec-05 07:30N 35°52' E 014°49'0 0.1
2016-Dec-05 06:04N 35°52' E 014°49'0 0.0
2016-Dec-05 05:31N 35°52' E 014°49'0 0.0
2016-Dec-05 04:33N 35°52' E 014°49'0 0.0
2016-Dec-05 03:31N 35°52' E 014°49'0 0.0
2016-Dec-05 02:33N 35°52' E 014°49'0 0.0
2016-Dec-05 01:34N 35°52' E 014°49'0 0.0
2016-Dec-05 00:33N 35°52' E 014°49'0 0.0
2016-Dec-04 23:33N 35°52' E 014°49'0 0.0
2016-Dec-04 22:34N 35°52' E 014°49'0 0.0
2016-Dec-04 21:27N 35°52' E 014°49'0 0.0
2016-Dec-04 20:34N 35°52' E 014°49'1 0.5
2016-Dec-04 19:33N 35°52' E 014°49'4 4.2
2016-Dec-04 18:33N 35°54' E 014°53'0 0.4
2016-Dec-04 17:31N 35°54' E 014°53'0 0.0
2016-Dec-04 16:16N 35°54' E 014°53'0 0.0
2016-Dec-04 15:31N 35°54' E 014°53'0 0.0
2016-Dec-04 14:31N 35°54' E 014°53'0 0.0
2016-Dec-04 13:14N 35°54' E 014°53'0 0.0
2016-Dec-04 12:26N 35°54' E 014°53'0 0.1
2016-Dec-04 11:33N 35°54' E 014°53'0 0.0
2016-Dec-04 10:32N 35°54' E 014°53'0 0.1
2016-Dec-04 09:26N 35°54' E 014°53'2 1.7
2016-Dec-04 08:16N 35°54' E 014°55'  
Track history (hours):
 
Tides and Currents Weather Stations Pressure Air Temp Water Temp Dewpoint Dewpoint Depression Visibility Wind Speed Wind Dir Waves Ship Positions

Brightway

Last reported at 2016-Dec-05 15:29 UTC. Time now 2016-Dec-08 04:08 UTC.
Position N 36°39' E 013°32'.

Length 274 m; draft 17.1 m.

Type: Tanker. MMSI: 566422000.

Date/timePositionNaut miles runAvg speedWind from/ knotsBaromVisibWave heightAir tempDewpointWater temp
2016-Dec-05 15:29N 36°39' E 013°32'1010.9
2016-Dec-05 14:33N 36°36' E 013°44'1411.0
2016-Dec-05 13:16N 36°31' E 014°01'811.1
2016-Dec-05 12:33N 36°28' E 014°10'1110.6
2016-Dec-05 11:33N 36°21' E 014°20'1111.3
2016-Dec-05 10:33N 36°12' E 014°28'1111.0
2016-Dec-05 09:33N 36°03' E 014°36'9 9.4
2016-Dec-05 08:34N 35°56' E 014°44'6 5.4
2016-Dec-05 07:30N 35°52' E 014°49'0 0.1
2016-Dec-05 06:04N 35°52' E 014°49'0 0.0
2016-Dec-05 05:31N 35°52' E 014°49'0 0.0
2016-Dec-05 04:33N 35°52' E 014°49'0 0.0
2016-Dec-05 03:31N 35°52' E 014°49'0 0.0
2016-Dec-05 02:33N 35°52' E 014°49'0 0.0
2016-Dec-05 01:34N 35°52' E 014°49'0 0.0
2016-Dec-05 00:33N 35°52' E 014°49'0 0.0
2016-Dec-04 23:33N 35°52' E 014°49'0 0.0
2016-Dec-04 22:34N 35°52' E 014°49'0 0.0
2016-Dec-04 21:27N 35°52' E 014°49'0 0.0
2016-Dec-04 20:34N 35°52' E 014°49'1 0.5
2016-Dec-04 19:33N 35°52' E 014°49'4 4.2
2016-Dec-04 18:33N 35°54' E 014°53'0 0.4
2016-Dec-04 17:31N 35°54' E 014°53'0 0.0
2016-Dec-04 16:16N 35°54' E 014°53'0 0.0
2016-Dec-04 15:31N 35°54' E 014°53'0 0.0
2016-Dec-04 14:31N 35°54' E 014°53'0 0.0
2016-Dec-04 13:14N 35°54' E 014°53'0 0.0
2016-Dec-04 12:26N 35°54' E 014°53'0 0.1
2016-Dec-04 11:33N 35°54' E 014°53'0 0.0
2016-Dec-04 10:32N 35°54' E 014°53'0 0.1
2016-Dec-04 09:26N 35°54' E 014°53'2 1.7
2016-Dec-04 08:16N 35°54' E 014°55'  

Dump ship's entire track history